Time;durP1;ratioP1;P1;durP2;ratioP2;P2;SDS_P1;SDS_P2;PMS_P1;PMS_P2;Temp;Humidity;BMP_temperature;BMP_pressure;BME280_temperature;BME280_humidity;BME280_pressure;Samples;Min_cycle;Max_cycle;Signal;HPM_P1;HPM_P2
2021/05/10 00:01:18;;;;;;;2.20;1.80;;;;;;;21.69;36.35;95590.59;5033026;28;20200;-69
2021/05/10 00:03:43;;;;;;;3.60;2.13;;;;;;;21.89;35.67;95597.03;5033006;28;20443;-71
2021/05/10 00:06:09;;;;;;;2.30;1.73;;;;;;;21.92;36.01;95602.66;5033213;28;20202;-72
2021/05/10 00:08:34;;;;;;;4.23;1.50;;;;;;;21.68;36.21;95604.16;5038114;28;20621;-71
2021/05/10 00:11:00;;;;;;;1.53;1.43;;;;;;;21.62;36.13;95600.69;5032795;28;20171;-72
2021/05/10 00:13:27;;;;;;;6.20;1.63;;;;;;;21.55;35.03;95600.88;5048286;28;20546;-71
2021/05/10 00:15:52;;;;;;;2.87;1.60;;;;;;;21.67;34.38;95591.91;5032718;28;20187;-72
2021/05/10 00:18:19;;;;;;;1.83;1.53;;;;;;;21.94;33.58;95592.50;5038865;28;20438;-71
2021/05/10 00:20:46;;;;;;;3.40;1.80;;;;;;;22.08;33.10;95586.66;5034548;28;20199;-71
2021/05/10 00:23:13;;;;;;;4.50;1.70;;;;;;;21.87;33.46;95585.81;5032475;28;20434;-71
2021/05/10 00:25:39;;;;;;;2.80;1.80;;;;;;;22.09;32.93;95582.91;5032502;28;20806;-71
2021/05/10 00:28:06;;;;;;;2.87;1.50;;;;;;;22.02;33.09;95585.06;5033310;28;20442;-71
2021/05/10 00:30:32;;;;;;;4.57;2.07;;;;;;;21.81;33.49;95578.88;5032540;28;20446;-71
2021/05/10 00:32:58;;;;;;;4.83;1.53;;;;;;;21.90;33.10;95575.44;5032335;28;20427;-72
2021/05/10 00:35:24;;;;;;;2.80;1.50;;;;;;;22.06;32.65;95573.59;5032854;28;20418;-71
2021/05/10 00:37:50;;;;;;;1.70;1.57;;;;;;;22.00;32.63;95566.63;5032546;28;20199;-71
2021/05/10 00:40:22;;;;;;;2.30;1.60;;;;;;;21.72;33.06;95576.75;5032264;28;20449;-70
2021/05/10 00:42:48;;;;;;;2.33;1.53;;;;;;;22.01;32.67;95578.13;5032102;28;20346;-72
2021/05/10 00:45:13;;;;;;;1.67;1.57;;;;;;;22.00;32.43;95563.19;5032638;28;20480;-71
2021/05/10 00:47:40;;;;;;;2.03;1.30;;;;;;;21.91;32.34;95569.03;5030697;28;20994;-70
2021/05/10 00:50:07;;;;;;;3.40;1.50;;;;;;;21.86;32.65;95571.69;5031977;28;20187;-71
2021/05/10 00:52:33;;;;;;;9.13;1.90;;;;;;;21.69;32.74;95573.78;5031301;28;20415;-71
2021/05/10 00:54:59;;;;;;;2.10;1.70;;;;;;;21.71;32.73;95576.97;5031852;28;20550;-71
2021/05/10 00:57:25;;;;;;;1.70;1.50;;;;;;;21.66;33.05;95579.66;5047359;28;20442;-70
2021/05/10 00:59:52;;;;;;;2.60;1.60;;;;;;;21.57;33.00;95577.44;5046870;28;20187;-69
2021/05/10 01:02:18;;;;;;;4.77;1.70;;;;;;;21.39;33.25;95570.72;5047375;28;20454;-72
2021/05/10 01:04:44;;;;;;;1.50;1.40;;;;;;;21.36;33.63;95567.81;5032335;28;20483;-71
2021/05/10 01:07:12;;;;;;;1.50;1.40;;;;;;;21.37;33.47;95572.06;5032200;28;20442;-71
2021/05/10 01:09:38;;;;;;;2.60;1.67;;;;;;;21.27;33.54;95567.50;5031634;28;20425;-72
2021/05/10 01:12:04;;;;;;;6.93;1.70;;;;;;;21.18;33.91;95560.00;5030983;28;20419;-71
2021/05/10 01:14:30;;;;;;;3.83;1.40;;;;;;;21.12;34.09;95557.59;5032499;28;20250;-71
2021/05/10 01:16:55;;;;;;;2.70;1.73;;;;;;;21.02;33.91;95548.50;5032438;28;20492;-71
2021/05/10 01:19:22;;;;;;;5.80;1.63;;;;;;;20.93;34.53;95546.59;5032805;28;20536;-70
2021/05/10 01:21:48;;;;;;;2.30;1.80;;;;;;;20.85;34.25;95553.19;5032410;28;20238;-72
2021/05/10 01:24:14;;;;;;;2.13;1.70;;;;;;;20.77;34.70;95556.34;5030920;28;20442;-71
2021/05/10 01:26:40;;;;;;;4.90;1.67;;;;;;;20.75;34.73;95555.81;5047064;28;20453;-71
2021/05/10 01:29:06;;;;;;;1.73;1.63;;;;;;;20.66;35.00;95558.94;5033150;28;20199;-70
2021/05/10 01:31:31;;;;;;;2.03;1.70;;;;;;;20.62;35.21;95560.50;5033212;28;20183;-73
2021/05/10 01:33:57;;;;;;;1.97;1.83;;;;;;;20.56;35.52;95557.00;5048835;28;20180;-73
2021/05/10 01:36:22;;;;;;;4.00;1.67;;;;;;;20.52;36.07;95555.09;5037338;28;20600;-72
2021/05/10 01:38:48;;;;;;;3.00;1.77;;;;;;;20.45;36.26;95554.50;5036515;28;20218;-72
2021/05/10 01:41:14;;;;;;;2.90;1.70;;;;;;;20.36;36.66;95555.00;5036980;28;20210;-71
2021/05/10 01:43:39;;;;;;;3.27;2.00;;;;;;;20.28;37.26;95550.16;5034712;28;20606;-72
2021/05/10 01:46:05;;;;;;;2.33;1.67;;;;;;;20.18;37.52;95552.72;5031793;28;20186;-72
2021/05/10 01:48:30;;;;;;;5.30;2.00;;;;;;;20.07;37.83;95547.31;5032059;28;20269;-72
2021/05/10 01:50:56;;;;;;;2.40;1.70;;;;;;;19.98;38.28;95548.84;5046984;28;20191;-71
2021/05/10 01:53:22;;;;;;;4.30;1.83;;;;;;;19.91;38.81;95554.34;5031360;28;20194;-71
2021/05/10 01:55:47;;;;;;;1.93;1.77;;;;;;;19.85;39.08;95551.88;5031452;28;20216;-72
2021/05/10 01:58:13;;;;;;;2.03;1.90;;;;;;;19.80;39.21;95545.44;5031731;28;20563;-71
2021/05/10 02:00:41;;;;;;;2.83;2.10;;;;;;;19.68;39.79;95536.81;5031073;28;20208;-72
2021/05/10 02:03:08;;;;;;;3.10;1.77;;;;;;;19.61;39.73;95541.56;5031352;28;20180;-71
2021/05/10 02:05:35;;;;;;;2.60;2.03;;;;;;;19.53;40.13;95537.50;5031619;28;20425;-71
2021/05/10 02:08:03;;;;;;;1.63;1.50;;;;;;;19.52;40.18;95540.41;5031875;28;20808;-71
2021/05/10 02:10:32;;;;;;;4.80;2.50;;;;;;;19.49;40.19;95537.19;5030199;28;20419;-71
2021/05/10 02:13:02;;;;;;;2.20;2.00;;;;;;;19.56;39.92;95546.81;5031054;28;20517;-72
2021/05/10 02:15:38;;;;;;;3.00;1.90;;;;;;;19.59;39.96;95528.53;5037382;28;20929;-72
2021/05/10 02:18:05;;;;;;;3.00;1.60;;;;;;;19.60;40.01;95532.75;5029648;28;20444;-72
2021/05/10 02:20:32;;;;;;;5.53;2.07;;;;;;;19.59;39.96;95530.38;5031046;28;20512;-71
2021/05/10 02:23:18;;;;;;;2.33;1.80;;;;;;;19.57;40.01;95533.28;5012890;28;20465;-71
2021/05/10 02:25:52;;;;;;;7.80;2.40;;;;;;;19.58;39.85;95539.38;5030890;28;20422;-69
2021/05/10 02:28:20;;;;;;;2.67;1.77;;;;;;;19.55;39.82;95534.56;5030581;28;20595;-72
2021/05/10 02:30:46;;;;;;;2.57;1.63;;;;;;;19.57;40.01;95535.13;5030804;28;20426;-70
2021/05/10 02:33:14;;;;;;;3.60;1.80;;;;;;;19.55;40.22;95545.19;5030234;28;20494;-71
2021/05/10 02:35:40;;;;;;;2.13;1.80;;;;;;;19.55;40.11;95537.22;5031153;28;20513;-72
2021/05/10 02:38:06;;;;;;;3.00;1.93;;;;;;;19.43;40.29;95532.84;5030637;28;20666;-71
2021/05/10 02:40:32;;;;;;;4.17;1.90;;;;;;;19.48;40.29;95530.28;5030474;28;20449;-71
2021/05/10 02:42:58;;;;;;;2.93;2.13;;;;;;;19.45;40.12;95530.75;5031232;28;20199;-72
2021/05/10 02:45:24;;;;;;;3.63;1.90;;;;;;;19.45;40.15;95530.75;5030401;28;20469;-72
2021/05/10 02:47:49;;;;;;;2.70;2.50;;;;;;;19.44;40.46;95531.81;5030740;28;20204;-71
2021/05/10 02:50:23;;;;;;;3.23;2.73;;;;;;;19.40;40.40;95528.06;5029347;28;20180;-71
2021/05/10 02:52:49;;;;;;;2.07;1.90;;;;;;;19.39;40.36;95523.81;5030607;28;20208;-71
2021/05/10 02:55:16;;;;;;;3.30;2.00;;;;;;;19.32;40.49;95505.41;5029841;28;20453;-71
2021/05/10 02:57:42;;;;;;;2.63;2.23;;;;;;;19.29;40.64;95505.09;5031009;28;20438;-72
2021/05/10 03:00:10;;;;;;;5.90;2.20;;;;;;;19.23;40.58;95512.19;5031463;28;20462;-71
2021/05/10 03:02:35;;;;;;;7.23;2.30;;;;;;;19.18;40.60;95517.47;5030187;28;20563;-70
2021/05/10 03:05:01;;;;;;;3.97;1.90;;;;;;;19.15;40.92;95525.91;5030617;28;20419;-71
2021/05/10 03:07:27;;;;;;;3.90;1.90;;;;;;;19.13;40.86;95525.34;5030049;28;20203;-71
2021/05/10 03:09:53;;;;;;;6.50;2.00;;;;;;;19.10;40.94;95524.00;5030231;28;20513;-71
2021/05/10 03:12:18;;;;;;;2.67;2.17;;;;;;;19.04;41.12;95530.28;5030608;28;20175;-71
2021/05/10 03:14:44;;;;;;;4.90;2.13;;;;;;;18.99;41.21;95525.72;5030717;28;20263;-71
2021/05/10 03:17:09;;;;;;;6.37;2.03;;;;;;;18.96;41.38;95533.38;5030370;28;20192;-72
2021/05/10 03:19:35;;;;;;;5.77;2.07;;;;;;;18.94;41.49;95535.47;5033282;28;20642;-71
2021/05/10 03:22:01;;;;;;;3.73;2.00;;;;;;;18.91;41.45;95538.59;5032962;28;20294;-71
2021/05/10 03:24:26;;;;;;;8.00;2.60;;;;;;;18.90;41.27;95534.34;5034004;28;20180;-72
2021/05/10 03:26:52;;;;;;;2.23;2.03;;;;;;;18.87;41.36;95530.31;5033544;28;20210;-72
2021/05/10 03:34:30;;;;;;;3.20;1.93;;;;;;;18.86;40.94;95563.22;5750073;23;20488;-72
2021/05/10 03:36:56;;;;;;;2.07;1.87;;;;;;;18.90;40.52;95574.16;5011090;28;20465;-70
2021/05/10 03:39:21;;;;;;;6.00;2.37;;;;;;;18.91;40.79;95586.34;5026827;28;20545;-70
2021/05/10 03:41:47;;;;;;;5.43;2.30;;;;;;;19.03;40.52;95587.09;5015291;28;20223;-72
2021/05/10 03:44:12;;;;;;;3.40;2.10;;;;;;;19.06;40.00;95591.91;5009827;28;20204;-72
2021/05/10 03:46:38;;;;;;;2.63;1.97;;;;;;;19.14;39.11;95591.50;5013833;28;20272;-72
2021/05/10 03:49:04;;;;;;;3.40;2.10;;;;;;;19.17;39.41;95583.03;5010211;28;20188;-72
2021/05/10 03:51:29;;;;;;;8.93;2.10;;;;;;;19.31;39.34;95580.81;5015916;28;20528;-71
2021/05/10 03:53:55;;;;;;;4.47;1.93;;;;;;;18.71;40.04;95596.44;5025762;28;20288;-71
2021/05/10 03:56:21;;;;;;;2.53;1.70;;;;;;;19.23;38.57;95599.81;5012792;28;20563;-71
2021/05/10 03:58:46;;;;;;;5.53;1.60;;;;;;;19.39;37.84;95598.16;5013340;28;20188;-72
2021/05/10 04:01:12;;;;;;;4.33;1.90;;;;;;;19.53;37.26;95592.47;4981968;28;20205;-72
2021/05/10 04:04:24;;;;;;;2.90;1.70;;;;;;;19.65;36.63;95593.94;5002281;28;20216;-72
2021/05/10 04:07:16;;;;;;;2.17;1.77;;;;;;;20.03;36.04;95609.22;5011763;28;20199;-72
2021/05/10 04:14:44;;;;;;;2.13;1.40;;;;;;;20.10;35.06;95610.63;5019378;28;20538;-72
2021/05/10 04:17:10;;;;;;;1.90;1.67;;;;;;;20.24;34.40;95607.56;5013138;28;20490;-71
2021/05/10 04:19:36;;;;;;;3.27;1.57;;;;;;;20.30;34.15;95619.81;5013440;28;20666;-73
2021/05/10 04:22:01;;;;;;;2.20;1.70;;;;;;;20.49;33.53;95616.81;5018090;28;20342;-72
2021/05/10 04:24:27;;;;;;;6.80;1.50;;;;;;;20.67;33.25;95613.72;5018485;28;20671;-71
2021/05/10 04:26:53;;;;;;;2.70;1.60;;;;;;;20.79;33.22;95613.59;5013832;28;20568;-72
2021/05/10 04:29:19;;;;;;;2.67;1.53;;;;;;;20.76;33.18;95618.63;5012166;28;20605;-71
2021/05/10 04:31:44;;;;;;;5.50;1.67;;;;;;;20.83;33.03;95611.22;4995153;28;20438;-71
2021/05/10 04:34:10;;;;;;;3.37;1.63;;;;;;;21.32;32.41;95610.16;5027456;28;20200;-73
2021/05/10 04:36:35;;;;;;;2.90;1.73;;;;;;;21.00;32.86;95600.38;5019011;28;20283;-70
2021/05/10 04:39:01;;;;;;;3.90;2.47;;;;;;;21.25;32.39;95597.06;4994996;28;20185;-71
2021/05/10 04:41:27;;;;;;;2.47;1.60;;;;;;;21.19;32.76;95598.09;4994974;28;20251;-72
2021/05/10 04:43:52;;;;;;;1.73;1.50;;;;;;;21.66;31.93;95585.00;5012418;28;20212;-71
2021/05/10 04:46:18;;;;;;;2.40;1.60;;;;;;;21.55;31.59;95587.56;4994336;28;20287;-71
2021/05/10 04:48:43;;;;;;;1.70;1.53;;;;;;;21.59;32.00;95594.03;4994950;28;20181;-71
2021/05/10 04:51:09;;;;;;;3.10;1.73;;;;;;;21.70;32.13;95581.53;4994496;28;20295;-71
2021/05/10 04:53:35;;;;;;;2.33;2.10;;;;;;;21.92;31.42;95591.97;5011977;28;20184;-71
2021/05/10 04:56:00;;;;;;;3.60;1.73;;;;;;;21.86;31.64;95586.91;4994632;28;20188;-72
2021/05/10 04:58:26;;;;;;;4.30;1.57;;;;;;;22.01;31.38;95586.13;5012603;28;20188;-72
2021/05/10 05:00:51;;;;;;;3.27;1.70;;;;;;;22.02;31.70;95587.72;5012127;28;20643;-71
2021/05/10 05:03:17;;;;;;;2.37;1.70;;;;;;;21.79;32.07;95595.16;4995484;28;20195;-71
2021/05/10 05:05:43;;;;;;;2.70;1.40;;;;;;;22.07;31.46;95598.38;5017159;28;20208;-71
2021/05/10 05:08:08;;;;;;;3.27;1.77;;;;;;;22.09;31.55;95605.06;5012890;28;20188;-71
2021/05/10 05:10:34;;;;;;;2.10;1.50;;;;;;;21.98;32.34;95608.78;5011632;28;20180;-71
2021/05/10 05:12:59;;;;;;;3.17;2.40;;;;;;;22.14;31.94;95593.59;5012216;28;20176;-70
2021/05/10 05:15:25;;;;;;;5.03;1.50;;;;;;;22.24;31.78;95601.59;5012079;28;20295;-71
2021/05/10 05:17:50;;;;;;;2.53;1.73;;;;;;;22.21;31.64;95607.47;5012071;28;20192;-70
2021/05/10 05:20:18;;;;;;;2.13;1.53;;;;;;;21.63;32.32;95623.59;5012485;28;20260;-70
2021/05/10 05:22:43;;;;;;;2.47;1.50;;;;;;;22.29;31.25;95608.03;5013139;28;20208;-71
2021/05/10 05:25:10;;;;;;;3.50;1.70;;;;;;;22.19;31.38;95630.94;5012244;28;20478;-70
2021/05/10 05:27:35;;;;;;;4.10;1.80;;;;;;;22.09;31.46;95618.41;5012406;28;20184;-71
2021/05/10 05:30:03;;;;;;;1.63;1.43;;;;;;;22.63;30.46;95628.84;5016281;28;20437;-71
2021/05/10 05:32:30;;;;;;;2.20;1.70;;;;;;;22.39;30.82;95629.38;4996513;28;20295;-72
2021/05/10 05:34:56;;;;;;;3.10;2.13;;;;;;;22.71;30.58;95625.63;5018864;28;20965;-71
2021/05/10 05:37:21;;;;;;;2.80;1.60;;;;;;;22.98;29.86;95627.22;5020960;28;20628;-71
2021/05/10 05:39:47;;;;;;;2.23;2.00;;;;;;;23.10;29.98;95624.25;5011237;28;20438;-71
2021/05/10 05:42:12;;;;;;;3.67;1.77;;;;;;;23.22;29.87;95626.66;4995430;28;20251;-72
2021/05/10 05:44:41;;;;;;;3.17;1.80;;;;;;;23.32;29.66;95634.63;5022411;28;20200;-72
2021/05/10 05:47:06;;;;;;;5.83;2.13;;;;;;;23.24;29.94;95644.03;4996226;28;20280;-72
2021/05/10 05:49:34;;;;;;;3.43;1.80;;;;;;;23.14;30.61;95646.66;5012696;28;20440;-71
2021/05/10 05:52:03;;;;;;;2.47;2.00;;;;;;;23.02;30.40;95663.00;5024825;28;20180;-71
2021/05/10 05:54:30;;;;;;;2.47;1.60;;;;;;;22.62;31.25;95672.63;5032165;28;21074;-70
2021/05/10 05:56:56;;;;;;;4.83;1.50;;;;;;;22.00;32.24;95680.50;5032871;28;20473;-72
2021/05/10 05:59:21;;;;;;;2.73;1.43;;;;;;;22.09;32.27;95684.25;4982504;28;20430;-68
2021/05/10 06:01:48;;;;;;;2.83;2.10;;;;;;;22.42;31.57;95692.91;5015390;28;20683;-67
2021/05/10 06:04:13;;;;;;;7.73;2.00;;;;;;;21.96;32.00;95700.75;5031041;28;20678;-68
2021/05/10 06:06:39;;;;;;;3.43;1.50;;;;;;;22.14;32.15;95705.63;5031671;28;20434;-65
2021/05/10 06:09:08;;;;;;;5.13;2.57;;;;;;;22.35;31.99;95708.34;5010967;28;20191;-66
2021/05/10 06:11:33;;;;;;;24.07;3.70;;;;;;;22.54;31.94;95711.31;5031762;28;20646;-68
2021/05/10 06:13:59;;;;;;;6.43;2.60;;;;;;;22.87;31.18;95703.88;5039182;28;20454;-67
2021/05/10 06:16:30;;;;;;;6.53;1.73;;;;;;;22.46;31.72;95709.97;5016301;28;20210;-65
2021/05/10 06:18:56;;;;;;;9.07;1.70;;;;;;;22.57;31.43;95710.81;5004090;28;20665;-67
2021/05/10 06:21:22;;;;;;;2.20;1.73;;;;;;;22.36;31.74;95705.41;5033821;28;20462;-67
2021/05/10 06:23:48;;;;;;;3.77;1.53;;;;;;;22.48;31.58;95712.41;5031643;28;20433;-68
2021/05/10 06:26:15;;;;;;;4.50;1.37;;;;;;;22.77;31.03;95710.03;4998426;28;20635;-66
2021/05/10 06:28:40;;;;;;;3.13;1.60;;;;;;;22.72;31.23;95710.00;5018496;28;20453;-67
2021/05/10 06:31:08;;;;;;;2.97;1.73;;;;;;;22.61;31.71;95716.41;5014210;28;20218;-67
2021/05/10 06:33:34;;;;;;;1.97;1.77;;;;;;;22.78;31.06;95710.81;5031091;28;20209;-68
2021/05/10 06:35:59;;;;;;;2.90;1.60;;;;;;;23.15;31.06;95715.06;5013100;28;20858;-66
2021/05/10 06:38:25;;;;;;;3.40;1.67;;;;;;;23.34;30.85;95704.63;5013120;28;20434;-65
2021/05/10 06:40:50;;;;;;;3.30;1.87;;;;;;;23.38;30.60;95704.88;5029652;28;20190;-65
2021/05/10 06:43:16;;;;;;;2.30;1.67;;;;;;;23.28;31.12;95721.78;5030270;28;20198;-65
2021/05/10 06:45:42;;;;;;;2.17;1.97;;;;;;;23.25;31.24;95730.31;5028946;28;20213;-67
2021/05/10 06:48:07;;;;;;;10.67;2.00;;;;;;;23.30;31.31;95731.09;5030831;28;20591;-65
2021/05/10 06:50:33;;;;;;;4.43;2.30;;;;;;;23.33;31.54;95731.63;5031228;28;20226;-66
2021/05/10 06:52:58;;;;;;;1.70;1.50;;;;;;;23.53;30.64;95730.81;5031780;28;20187;-67
2021/05/10 06:55:24;;;;;;;4.80;1.77;;;;;;;23.40;30.94;95732.97;5016707;28;20204;-67
2021/05/10 06:57:49;;;;;;;2.80;1.50;;;;;;;23.44;31.01;95741.25;5033773;28;20186;-67
2021/05/10 07:00:15;;;;;;;8.50;1.47;;;;;;;23.57;30.93;95748.69;5034706;28;20593;-66
2021/05/10 07:02:41;;;;;;;3.60;1.57;;;;;;;23.33;31.26;95774.41;5016244;28;20658;-67
2021/05/10 07:05:07;;;;;;;7.53;1.70;;;;;;;23.43;31.09;95769.84;5033896;28;20457;-65
2021/05/10 07:07:33;;;;;;;3.10;1.93;;;;;;;23.84;30.66;95784.19;5035108;28;20199;-68
2021/05/10 07:09:59;;;;;;;5.23;1.77;;;;;;;23.67;30.90;95779.97;5034587;28;20438;-65
2021/05/10 07:12:25;;;;;;;3.63;1.57;;;;;;;23.55;31.34;95782.13;5034863;28;20438;-65
2021/05/10 07:14:50;;;;;;;3.77;2.50;;;;;;;23.56;31.47;95787.19;5034207;28;20748;-66
2021/05/10 07:17:16;;;;;;;3.80;1.93;;;;;;;23.58;31.73;95792.25;5027865;28;20187;-67
2021/05/10 07:19:42;;;;;;;3.00;1.60;;;;;;;24.21;31.48;95796.38;5037777;28;20203;-67
2021/05/10 07:22:07;;;;;;;1.93;1.30;;;;;;;24.29;31.41;95795.03;5018333;28;20298;-67
2021/05/10 07:24:33;;;;;;;2.53;1.73;;;;;;;24.87;30.61;95794.47;5016413;28;20207;-66
2021/05/10 07:26:59;;;;;;;3.37;1.70;;;;;;;23.85;32.84;95801.84;5027057;28;20275;-72
2021/05/10 07:29:25;;;;;;;7.23;1.90;;;;;;;24.22;32.66;95792.63;5018818;28;20999;-69
2021/05/10 07:31:51;;;;;;;10.27;1.57;;;;;;;24.16;33.13;95802.56;5003523;28;20192;-66
2021/05/10 07:34:16;;;;;;;4.33;1.90;;;;;;;24.01;33.49;95808.78;5039304;28;21122;-69
2021/05/10 07:36:42;;;;;;;2.43;1.50;;;;;;;24.26;33.70;95801.72;5029589;28;20200;-67
2021/05/10 07:39:08;;;;;;;6.97;1.63;;;;;;;23.70;34.53;95813.38;5000585;28;20238;-66
2021/05/10 07:41:33;;;;;;;7.33;1.73;;;;;;;24.06;34.17;95813.31;5034671;28;20223;-66
2021/05/10 07:44:01;;;;;;;2.03;1.83;;;;;;;23.53;35.52;95814.47;5033387;28;20640;-65
2021/05/10 07:46:26;;;;;;;3.97;2.00;;;;;;;23.80;35.62;95817.91;5034565;28;20187;-68
2021/05/10 07:48:52;;;;;;;2.90;1.80;;;;;;;23.80;35.23;95823.25;5034302;28;20466;-66
2021/05/10 07:51:17;;;;;;;8.97;2.83;;;;;;;23.76;35.30;95826.47;5016060;28;20668;-65
2021/05/10 07:53:43;;;;;;;5.50;2.03;;;;;;;23.96;35.50;95824.84;5036615;28;20188;-68
2021/05/10 07:56:08;;;;;;;2.13;1.40;;;;;;;23.85;36.21;95833.94;5034004;28;20188;-67
2021/05/10 07:58:37;;;;;;;5.07;2.23;;;;;;;23.67;36.35;95828.09;5034543;28;20329;-68
2021/05/10 08:01:04;;;;;;;7.67;1.80;;;;;;;23.66;36.28;95825.66;5033438;28;20187;-67
2021/05/10 08:03:30;;;;;;;4.83;2.00;;;;;;;23.66;36.85;95809.63;5025304;28;20506;-69
2021/05/10 08:05:56;;;;;;;4.40;1.73;;;;;;;23.24;37.67;95795.50;5023622;28;20456;-68
2021/05/10 08:08:23;;;;;;;3.30;1.83;;;;;;;24.00;36.66;95791.13;5026197;28;20484;-69
2021/05/10 08:10:49;;;;;;;5.53;2.20;;;;;;;24.21;35.84;95797.19;5030032;28;20196;-68
2021/05/10 08:13:15;;;;;;;5.80;1.97;;;;;;;23.95;35.92;95799.13;5029045;28;20446;-69
2021/05/10 08:15:41;;;;;;;13.23;2.00;;;;;;;24.59;35.32;95793.28;5022078;28;20437;-68
2021/05/10 08:18:06;;;;;;;3.10;1.93;;;;;;;24.87;35.49;95804.38;5034206;28;20184;-69
2021/05/10 08:20:32;;;;;;;3.73;1.63;;;;;;;26.44;32.85;95803.44;5035075;28;20238;-69
2021/05/10 08:22:58;;;;;;;5.43;1.70;;;;;;;27.06;32.29;95798.03;5016163;28;20216;-68
2021/05/10 08:25:24;;;;;;;5.67;2.03;;;;;;;26.63;32.53;95804.28;5033521;28;20298;-68
2021/05/10 08:27:50;;;;;;;3.30;1.90;;;;;;;25.92;34.17;95809.38;5033284;28;20187;-67
2021/05/10 08:30:16;;;;;;;7.83;2.03;;;;;;;24.76;35.68;95820.50;5015686;28;20493;-67
2021/05/10 08:32:42;;;;;;;3.83;1.47;;;;;;;24.48;36.60;95813.94;5033885;28;20513;-67
2021/05/10 08:35:09;;;;;;;3.23;1.80;;;;;;;24.27;36.92;95814.03;5015654;28;20497;-68
2021/05/10 08:37:36;;;;;;;4.67;1.60;;;;;;;24.13;36.99;95826.41;5025490;28;20196;-69
2021/05/10 08:40:03;;;;;;;4.70;1.83;;;;;;;24.05;37.29;95828.56;5026830;28;20438;-70
2021/05/10 08:42:28;;;;;;;4.83;2.10;;;;;;;24.35;36.65;95834.88;5034069;28;20473;-67
2021/05/10 08:44:54;;;;;;;5.70;2.27;;;;;;;23.71;38.17;95826.47;5032938;28;20901;-68
2021/05/10 08:47:21;;;;;;;5.63;1.80;;;;;;;23.83;38.16;95822.69;5032415;28;20201;-70
2021/05/10 08:49:48;;;;;;;2.23;2.00;;;;;;;24.01;37.61;95821.34;5034205;28;20630;-68
2021/05/10 08:52:14;;;;;;;8.20;2.30;;;;;;;24.04;37.62;95829.66;5032736;28;20522;-68
2021/05/10 08:54:40;;;;;;;5.90;1.97;;;;;;;23.50;38.89;95832.91;5033637;28;20473;-69
2021/05/10 08:57:06;;;;;;;3.10;2.00;;;;;;;23.67;38.47;95836.13;5001274;28;20430;-69
2021/05/10 08:59:32;;;;;;;4.97;2.10;;;;;;;23.58;38.80;95837.72;5034617;28;20179;-69
2021/05/10 09:02:02;;;;;;;4.20;2.20;;;;;;;23.83;37.60;95841.41;5033759;28;20302;-74
2021/05/10 09:04:32;;;;;;;3.40;1.87;;;;;;;23.85;37.82;95839.28;5032373;28;20212;-70
2021/05/10 09:07:17;;;;;;;7.37;2.40;;;;;;;23.82;37.76;95840.63;5032474;28;20449;-70
2021/05/10 09:09:57;;;;;;;6.67;2.70;;;;;;;23.91;37.78;95844.34;5028982;28;20450;-69
2021/05/10 09:12:23;;;;;;;4.77;2.33;;;;;;;23.90;38.10;95853.44;5024901;28;21210;-69
2021/05/10 09:14:50;;;;;;;5.33;2.37;;;;;;;24.27;37.80;95846.16;5015339;28;20486;-69
2021/05/10 09:17:16;;;;;;;3.10;2.43;;;;;;;24.37;37.71;95846.09;5029748;28;20434;-69
2021/05/10 09:19:56;;;;;;;5.03;2.47;;;;;;;24.42;37.43;95849.84;5009902;28;20968;-69
2021/05/10 09:22:22;;;;;;;5.73;2.33;;;;;;;24.50;37.67;95846.59;5032374;28;20454;-68
2021/05/10 09:24:52;;;;;;;4.50;1.90;;;;;;;24.43;37.63;95838.84;5014303;28;20537;-68
2021/05/10 09:27:29;;;;;;;8.50;2.40;;;;;;;23.61;39.82;95853.22;5032754;28;20438;-70
2021/05/10 09:30:21;;;;;;;4.00;1.97;;;;;;;23.76;39.61;95860.41;5035330;28;20915;-70
2021/05/10 09:32:57;;;;;;;7.30;2.30;;;;;;;24.34;38.54;95854.69;5022689;28;20521;-69
2021/05/10 09:35:24;;;;;;;4.67;2.07;;;;;;;24.71;38.22;95859.91;5029685;28;20478;-66
2021/05/10 09:37:57;;;;;;;5.93;2.30;;;;;;;24.31;38.53;95855.25;5016924;28;20615;-67
2021/05/10 09:40:24;;;;;;;3.90;2.10;;;;;;;24.01;39.00;95851.59;5017469;28;20422;-67
2021/05/10 09:42:52;;;;;;;4.20;2.07;;;;;;;23.69;39.68;95847.31;5031885;28;20462;-69
2021/05/10 09:45:45;;;;;;;4.47;2.00;;;;;;;24.23;39.20;95845.91;5032140;28;20544;-68
2021/05/10 09:48:10;;;;;;;7.17;2.40;;;;;;;24.09;39.93;95855.59;5032829;28;20438;-71
2021/05/10 09:50:41;;;;;;;2.53;2.30;;;;;;;24.48;38.50;95849.56;5031866;28;20433;-70
2021/05/10 09:53:10;;;;;;;4.50;2.50;;;;;;;24.10;39.41;95857.19;5029524;28;20631;-70
2021/05/10 09:56:03;;;;;;;9.13;2.30;;;;;;;24.16;38.90;95861.44;5008566;28;20461;-70
2021/05/10 09:58:43;;;;;;;5.80;2.17;;;;;;;24.17;38.99;95855.00;4989782;28;20451;-70
2021/05/10 10:01:10;;;;;;;4.13;2.03;;;;;;;23.95;38.93;95852.63;4988120;28;20493;-69
2021/05/10 10:03:43;;;;;;;8.30;2.20;;;;;;;24.40;38.34;95850.09;5025451;28;20859;-69
2021/05/10 10:06:09;;;;;;;6.07;1.93;;;;;;;23.78;39.23;95858.28;5031110;28;20430;-67
2021/05/10 10:08:37;;;;;;;2.07;1.77;;;;;;;24.27;38.34;95856.84;5013732;28;20422;-68
2021/05/10 10:11:04;;;;;;;3.83;1.90;;;;;;;24.33;37.66;95871.03;5030171;28;20434;-68
2021/05/10 10:13:30;;;;;;;3.83;2.23;;;;;;;23.63;39.07;95877.81;5030775;28;20434;-68
2021/05/10 10:15:57;;;;;;;2.60;1.90;;;;;;;23.57;38.76;95881.56;5011703;28;20451;-69
2021/05/10 10:18:24;;;;;;;4.40;1.80;;;;;;;24.20;38.06;95883.09;5026714;28;20250;-68
2021/05/10 10:20:51;;;;;;;10.57;1.50;;;;;;;24.68;36.74;95888.00;5021144;28;20549;-68
2021/05/10 10:23:19;;;;;;;7.10;1.70;;;;;;;24.66;36.73;95896.34;5033758;28;20555;-68
2021/05/10 10:25:45;;;;;;;3.13;1.40;;;;;;;24.09;37.60;95903.75;5016820;28;20499;-67
2021/05/10 10:28:15;;;;;;;2.67;1.53;;;;;;;24.49;36.85;95909.25;5032604;28;20994;-68
2021/05/10 10:30:45;;;;;;;6.60;1.80;;;;;;;24.41;36.86;95923.19;5034809;28;20445;-69
2021/05/10 10:33:14;;;;;;;4.30;2.03;;;;;;;24.81;36.01;95934.88;5034092;28;20422;-70
2021/05/10 10:35:43;;;;;;;2.33;1.73;;;;;;;24.78;36.16;95948.81;5033648;28;20533;-71
2021/05/10 10:38:10;;;;;;;1.70;1.40;;;;;;;24.76;35.66;95949.06;5016334;28;20442;-67
2021/05/10 10:40:36;;;;;;;2.43;1.40;;;;;;;24.75;35.60;95949.34;5034854;28;20749;-69
2021/05/10 10:43:21;;;;;;;2.13;1.10;;;;;;;24.62;35.76;95937.31;5033631;28;20595;-70
2021/05/10 10:46:22;;;;;;;1.73;1.10;;;;;;;24.46;36.06;95928.53;5034827;28;20207;-67
2021/05/10 10:48:48;;;;;;;3.80;1.00;;;;;;;24.24;36.55;95924.31;5034314;28;20521;-67
2021/05/10 10:51:14;;;;;;;4.50;1.10;;;;;;;23.49;37.66;95923.00;5033892;28;20459;-69
2021/05/10 10:53:44;;;;;;;6.00;1.37;;;;;;;23.62;37.87;95940.38;5033918;28;20422;-67
2021/05/10 10:56:10;;;;;;;2.50;1.10;;;;;;;23.64;37.90;95943.59;5008235;28;20426;-69
2021/05/10 10:58:39;;;;;;;1.93;1.20;;;;;;;23.31;38.76;95940.38;5034461;28;20450;-69
2021/05/10 11:01:13;;;;;;;2.10;1.20;;;;;;;23.30;38.69;95928.84;5034119;28;20447;-68
2021/05/10 11:03:39;;;;;;;3.60;1.43;;;;;;;23.49;38.35;95938.22;5017025;28;20434;-68
2021/05/10 11:06:05;;;;;;;1.60;1.30;;;;;;;23.24;38.87;95953.16;5034640;28;20442;-70
2021/05/10 11:08:43;;;;;;;4.47;1.63;;;;;;;22.66;40.05;95946.00;5033870;28;20967;-70
2021/05/10 11:11:27;;;;;;;3.00;1.37;;;;;;;22.90;39.99;95948.25;5033939;28;20467;-69
2021/05/10 11:13:53;;;;;;;4.60;1.60;;;;;;;22.67;40.64;95956.41;5025806;28;20430;-69
2021/05/10 11:16:45;;;;;;;2.80;1.53;;;;;;;22.73;40.33;95959.91;5017412;28;20422;-68
2021/05/10 11:19:27;;;;;;;4.03;1.30;;;;;;;21.90;42.29;95975.41;5000601;28;20438;-69
2021/05/10 11:21:53;;;;;;;4.03;1.67;;;;;;;22.03;41.94;95981.38;5034085;28;20519;-68
2021/05/10 11:24:30;;;;;;;1.93;1.47;;;;;;;22.38;41.33;95988.00;5033162;28;20792;-70
2021/05/10 11:26:58;;;;;;;5.13;1.50;;;;;;;21.90;42.18;95998.59;5024822;28;20286;-71
2021/05/10 11:29:26;;;;;;;1.40;1.10;;;;;;;22.03;42.11;95998.16;5017268;28;20942;-69
2021/05/10 11:31:54;;;;;;;2.90;1.10;;;;;;;22.23;41.34;95997.50;5019617;28;20513;-69
2021/05/10 11:34:33;;;;;;;1.10;1.00;;;;;;;22.19;41.36;96008.97;5039007;28;20441;-68
2021/05/10 11:36:59;;;;;;;2.80;1.00;;;;;;;21.75;41.79;96005.41;5027681;28;20449;-70
2021/05/10 11:39:35;;;;;;;2.40;1.30;;;;;;;21.76;42.04;96009.66;5037850;28;20900;-70
2021/05/10 11:42:05;;;;;;;1.30;1.20;;;;;;;21.68;41.99;95999.47;5038522;28;20454;-70
2021/05/10 11:44:36;;;;;;;3.13;0.90;;;;;;;21.18;42.23;96010.16;5034247;28;20473;-69
2021/05/10 11:47:13;;;;;;;1.00;0.80;;;;;;;21.07;42.54;96007.59;5034237;28;20456;-69